sensor_id;sensor_type;location;lat;lon;timestamp;P1;durP1;ratioP1;P2;durP2;ratioP2
46334;SDS011;32051;48.882;9.210;2022-12-10T00:00:38;27.45;;;17.40;;
46334;SDS011;32051;48.882;9.210;2022-12-10T00:03:04;27.83;;;19.13;;
46334;SDS011;32051;48.882;9.210;2022-12-10T00:05:32;29.63;;;17.60;;
46334;SDS011;32051;48.882;9.210;2022-12-10T00:07:58;22.10;;;16.92;;
46334;SDS011;32051;48.882;9.210;2022-12-10T00:10:24;24.60;;;17.38;;
46334;SDS011;32051;48.882;9.210;2022-12-10T00:12:50;25.20;;;17.27;;
46334;SDS011;32051;48.882;9.210;2022-12-10T00:15:16;27.35;;;17.38;;
46334;SDS011;32051;48.882;9.210;2022-12-10T00:17:42;27.50;;;17.75;;
46334;SDS011;32051;48.882;9.210;2022-12-10T00:20:09;31.23;;;17.58;;
46334;SDS011;32051;48.882;9.210;2022-12-10T00:22:35;28.15;;;17.92;;
46334;SDS011;32051;48.882;9.210;2022-12-10T00:25:01;28.60;;;17.58;;
46334;SDS011;32051;48.882;9.210;2022-12-10T00:27:27;26.70;;;16.40;;
46334;SDS011;32051;48.882;9.210;2022-12-10T00:29:54;17.73;;;14.73;;
46334;SDS011;32051;48.882;9.210;2022-12-10T00:32:20;24.05;;;15.98;;
46334;SDS011;32051;48.882;9.210;2022-12-10T00:34:46;29.27;;;17.00;;
46334;SDS011;32051;48.882;9.210;2022-12-10T00:37:12;29.60;;;18.85;;
46334;SDS011;32051;48.882;9.210;2022-12-10T00:39:38;26.35;;;17.38;;
46334;SDS011;32051;48.882;9.210;2022-12-10T00:42:05;23.95;;;16.73;;
46334;SDS011;32051;48.882;9.210;2022-12-10T00:44:31;28.80;;;17.00;;
46334;SDS011;32051;48.882;9.210;2022-12-10T00:46:57;26.55;;;16.75;;
46334;SDS011;32051;48.882;9.210;2022-12-10T00:49:23;27.33;;;16.35;;
46334;SDS011;32051;48.882;9.210;2022-12-10T00:51:49;28.95;;;16.80;;
46334;SDS011;32051;48.882;9.210;2022-12-10T00:54:15;27.20;;;17.42;;
46334;SDS011;32051;48.882;9.210;2022-12-10T00:56:41;21.15;;;16.25;;
46334;SDS011;32051;48.882;9.210;2022-12-10T00:59:07;28.13;;;18.27;;
46334;SDS011;32051;48.882;9.210;2022-12-10T01:01:40;24.20;;;16.52;;
46334;SDS011;32051;48.882;9.210;2022-12-10T01:04:17;25.80;;;16.25;;
46334;SDS011;32051;48.882;9.210;2022-12-10T01:06:44;30.13;;;18.77;;
46334;SDS011;32051;48.882;9.210;2022-12-10T01:09:20;28.85;;;16.92;;
46334;SDS011;32051;48.882;9.210;2022-12-10T01:11:48;27.77;;;16.65;;
46334;SDS011;32051;48.882;9.210;2022-12-10T01:14:17;27.80;;;17.17;;
46334;SDS011;32051;48.882;9.210;2022-12-10T01:19:15;31.95;;;16.38;;
46334;SDS011;32051;48.882;9.210;2022-12-10T01:21:41;24.13;;;16.20;;
46334;SDS011;32051;48.882;9.210;2022-12-10T01:24:07;31.88;;;19.05;;
46334;SDS011;32051;48.882;9.210;2022-12-10T01:26:33;20.30;;;16.20;;
46334;SDS011;32051;48.882;9.210;2022-12-10T01:29:00;28.42;;;17.25;;
46334;SDS011;32051;48.882;9.210;2022-12-10T01:31:30;30.55;;;17.70;;
46334;SDS011;32051;48.882;9.210;2022-12-10T01:34:00;25.73;;;15.85;;
46334;SDS011;32051;48.882;9.210;2022-12-10T01:36:32;28.98;;;17.10;;
46334;SDS011;32051;48.882;9.210;2022-12-10T01:38:59;26.23;;;16.63;;
46334;SDS011;32051;48.882;9.210;2022-12-10T01:41:30;26.65;;;16.10;;
46334;SDS011;32051;48.882;9.210;2022-12-10T01:46:36;26.65;;;18.27;;
46334;SDS011;32051;48.882;9.210;2022-12-10T01:49:11;25.92;;;16.65;;
46334;SDS011;32051;48.882;9.210;2022-12-10T01:51:40;28.40;;;16.52;;
46334;SDS011;32051;48.882;9.210;2022-12-10T01:54:09;23.55;;;16.60;;
46334;SDS011;32051;48.882;9.210;2022-12-10T01:56:38;27.35;;;16.83;;
46334;SDS011;32051;48.882;9.210;2022-12-10T01:59:08;24.50;;;16.38;;
46334;SDS011;32051;48.882;9.210;2022-12-10T02:01:43;30.30;;;17.85;;
46334;SDS011;32051;48.882;9.210;2022-12-10T02:10:08;34.58;;;19.00;;
46334;SDS011;32051;48.882;9.210;2022-12-10T02:12:21;27.08;;;18.02;;
46334;SDS011;32051;48.882;9.210;2022-12-10T02:17:24;23.33;;;16.25;;
46334;SDS011;32051;48.882;9.210;2022-12-10T02:19:55;26.77;;;16.70;;
46334;SDS011;32051;48.882;9.210;2022-12-10T02:22:48;29.92;;;17.88;;
46334;SDS011;32051;48.882;9.210;2022-12-10T02:25:17;24.83;;;17.27;;
46334;SDS011;32051;48.882;9.210;2022-12-10T02:30:29;28.30;;;17.10;;
46334;SDS011;32051;48.882;9.210;2022-12-10T02:32:57;28.27;;;17.73;;
46334;SDS011;32051;48.882;9.210;2022-12-10T02:35:25;26.45;;;16.20;;
46334;SDS011;32051;48.882;9.210;2022-12-10T02:38:07;23.90;;;16.70;;
46334;SDS011;32051;48.882;9.210;2022-12-10T02:40:35;25.67;;;15.43;;
46334;SDS011;32051;48.882;9.210;2022-12-10T02:43:05;23.17;;;16.17;;
46334;SDS011;32051;48.882;9.210;2022-12-10T02:45:32;24.48;;;16.70;;
46334;SDS011;32051;48.882;9.210;2022-12-10T02:48:00;23.13;;;15.93;;
46334;SDS011;32051;48.882;9.210;2022-12-10T02:50:35;23.40;;;15.88;;
46334;SDS011;32051;48.882;9.210;2022-12-10T02:53:02;28.52;;;17.25;;
46334;SDS011;32051;48.882;9.210;2022-12-10T02:55:30;22.42;;;14.85;;
46334;SDS011;32051;48.882;9.210;2022-12-10T03:01:10;21.65;;;14.85;;
46334;SDS011;32051;48.882;9.210;2022-12-10T03:11:01;26.25;;;16.98;;
46334;SDS011;32051;48.882;9.210;2022-12-10T03:13:32;24.90;;;16.85;;
46334;SDS011;32051;48.882;9.210;2022-12-10T03:16:02;23.33;;;15.50;;
46334;SDS011;32051;48.882;9.210;2022-12-10T03:18:28;23.35;;;16.50;;
46334;SDS011;32051;48.882;9.210;2022-12-10T03:20:55;32.47;;;18.10;;
46334;SDS011;32051;48.882;9.210;2022-12-10T03:23:24;24.35;;;15.93;;
46334;SDS011;32051;48.882;9.210;2022-12-10T03:25:50;26.55;;;16.58;;
46334;SDS011;32051;48.882;9.210;2022-12-10T03:28:18;32.70;;;18.65;;
46334;SDS011;32051;48.882;9.210;2022-12-10T03:30:44;27.35;;;17.80;;
46334;SDS011;32051;48.882;9.210;2022-12-10T03:33:11;25.38;;;16.92;;
46334;SDS011;32051;48.882;9.210;2022-12-10T03:35:38;29.73;;;16.88;;
46334;SDS011;32051;48.882;9.210;2022-12-10T03:38:04;23.77;;;16.90;;
46334;SDS011;32051;48.882;9.210;2022-12-10T03:40:30;23.05;;;16.27;;
46334;SDS011;32051;48.882;9.210;2022-12-10T03:42:57;24.23;;;17.23;;
46334;SDS011;32051;48.882;9.210;2022-12-10T03:45:23;24.70;;;16.20;;
46334;SDS011;32051;48.882;9.210;2022-12-10T03:47:49;25.48;;;17.90;;
46334;SDS011;32051;48.882;9.210;2022-12-10T03:50:15;24.13;;;17.02;;
46334;SDS011;32051;48.882;9.210;2022-12-10T03:52:41;26.70;;;17.25;;
46334;SDS011;32051;48.882;9.210;2022-12-10T03:55:07;22.73;;;16.33;;
46334;SDS011;32051;48.882;9.210;2022-12-10T03:57:34;26.13;;;17.33;;
46334;SDS011;32051;48.882;9.210;2022-12-10T04:00:00;24.10;;;17.13;;
46334;SDS011;32051;48.882;9.210;2022-12-10T04:02:26;28.17;;;17.13;;
46334;SDS011;32051;48.882;9.210;2022-12-10T04:04:53;24.75;;;17.27;;
46334;SDS011;32051;48.882;9.210;2022-12-10T04:07:19;23.50;;;16.55;;
46334;SDS011;32051;48.882;9.210;2022-12-10T04:09:45;26.40;;;16.90;;
46334;SDS011;32051;48.882;9.210;2022-12-10T04:12:11;31.58;;;19.17;;
46334;SDS011;32051;48.882;9.210;2022-12-10T04:14:38;27.08;;;16.55;;
46334;SDS011;32051;48.882;9.210;2022-12-10T04:17:23;23.45;;;16.58;;
46334;SDS011;32051;48.882;9.210;2022-12-10T04:19:49;27.63;;;16.70;;
46334;SDS011;32051;48.882;9.210;2022-12-10T04:22:16;25.88;;;15.80;;
46334;SDS011;32051;48.882;9.210;2022-12-10T04:25:01;27.15;;;17.15;;
46334;SDS011;32051;48.882;9.210;2022-12-10T04:27:46;24.98;;;16.45;;
46334;SDS011;32051;48.882;9.210;2022-12-10T04:30:12;25.10;;;16.70;;
46334;SDS011;32051;48.882;9.210;2022-12-10T04:32:38;22.05;;;15.40;;
46334;SDS011;32051;48.882;9.210;2022-12-10T04:35:04;28.20;;;17.45;;
46334;SDS011;32051;48.882;9.210;2022-12-10T04:37:30;29.40;;;18.27;;
46334;SDS011;32051;48.882;9.210;2022-12-10T04:39:56;29.25;;;18.52;;
46334;SDS011;32051;48.882;9.210;2022-12-10T04:42:23;27.08;;;18.65;;
46334;SDS011;32051;48.882;9.210;2022-12-10T04:44:49;28.08;;;17.52;;
46334;SDS011;32051;48.882;9.210;2022-12-10T04:47:15;33.60;;;19.33;;
46334;SDS011;32051;48.882;9.210;2022-12-10T04:49:41;26.90;;;17.08;;
46334;SDS011;32051;48.882;9.210;2022-12-10T04:52:08;33.33;;;19.67;;
46334;SDS011;32051;48.882;9.210;2022-12-10T04:54:35;28.42;;;17.38;;
46334;SDS011;32051;48.882;9.210;2022-12-10T04:57:02;24.80;;;17.38;;
46334;SDS011;32051;48.882;9.210;2022-12-10T04:59:28;31.65;;;17.85;;
46334;SDS011;32051;48.882;9.210;2022-12-10T05:01:54;24.90;;;17.33;;
46334;SDS011;32051;48.882;9.210;2022-12-10T05:04:20;31.52;;;17.20;;
46334;SDS011;32051;48.882;9.210;2022-12-10T05:06:47;25.50;;;18.23;;
46334;SDS011;32051;48.882;9.210;2022-12-10T05:09:14;28.92;;;17.63;;
46334;SDS011;32051;48.882;9.210;2022-12-10T05:11:40;30.30;;;19.15;;
46334;SDS011;32051;48.882;9.210;2022-12-10T05:14:09;31.02;;;18.30;;
46334;SDS011;32051;48.882;9.210;2022-12-10T05:16:36;31.20;;;17.65;;
46334;SDS011;32051;48.882;9.210;2022-12-10T05:19:02;25.80;;;17.88;;
46334;SDS011;32051;48.882;9.210;2022-12-10T05:21:28;28.70;;;17.80;;
46334;SDS011;32051;48.882;9.210;2022-12-10T05:24:15;29.08;;;17.40;;
46334;SDS011;32051;48.882;9.210;2022-12-10T05:26:41;29.17;;;17.33;;
46334;SDS011;32051;48.882;9.210;2022-12-10T05:29:08;27.10;;;17.20;;
46334;SDS011;32051;48.882;9.210;2022-12-10T05:31:34;29.27;;;17.45;;
46334;SDS011;32051;48.882;9.210;2022-12-10T05:34:00;29.73;;;18.88;;
46334;SDS011;32051;48.882;9.210;2022-12-10T05:36:28;25.33;;;17.98;;
46334;SDS011;32051;48.882;9.210;2022-12-10T05:38:54;31.73;;;18.27;;
46334;SDS011;32051;48.882;9.210;2022-12-10T05:41:25;25.67;;;17.42;;
46334;SDS011;32051;48.882;9.210;2022-12-10T05:43:53;31.15;;;17.60;;
46334;SDS011;32051;48.882;9.210;2022-12-10T05:46:20;27.08;;;17.98;;
46334;SDS011;32051;48.882;9.210;2022-12-10T05:48:47;27.92;;;17.30;;
46334;SDS011;32051;48.882;9.210;2022-12-10T05:51:15;32.13;;;19.20;;
46334;SDS011;32051;48.882;9.210;2022-12-10T05:53:41;34.33;;;18.02;;
46334;SDS011;32051;48.882;9.210;2022-12-10T05:56:09;26.17;;;17.65;;
46334;SDS011;32051;48.882;9.210;2022-12-10T05:58:35;27.52;;;16.90;;
46334;SDS011;32051;48.882;9.210;2022-12-10T06:01:05;29.00;;;18.52;;
46334;SDS011;32051;48.882;9.210;2022-12-10T06:03:32;28.08;;;17.10;;
46334;SDS011;32051;48.882;9.210;2022-12-10T06:05:58;31.05;;;19.10;;
46334;SDS011;32051;48.882;9.210;2022-12-10T06:08:24;25.88;;;18.33;;
46334;SDS011;32051;48.882;9.210;2022-12-10T06:10:50;29.00;;;18.02;;
46334;SDS011;32051;48.882;9.210;2022-12-10T06:13:16;26.58;;;17.65;;
46334;SDS011;32051;48.882;9.210;2022-12-10T06:15:42;32.53;;;19.13;;
46334;SDS011;32051;48.882;9.210;2022-12-10T06:18:08;34.85;;;19.38;;
46334;SDS011;32051;48.882;9.210;2022-12-10T06:20:37;28.70;;;19.30;;
46334;SDS011;32051;48.882;9.210;2022-12-10T06:23:03;26.90;;;18.50;;
46334;SDS011;32051;48.882;9.210;2022-12-10T06:25:29;30.77;;;18.20;;
46334;SDS011;32051;48.882;9.210;2022-12-10T06:27:55;29.75;;;18.35;;
46334;SDS011;32051;48.882;9.210;2022-12-10T06:30:21;29.40;;;17.83;;
46334;SDS011;32051;48.882;9.210;2022-12-10T06:32:47;32.47;;;17.40;;
46334;SDS011;32051;48.882;9.210;2022-12-10T06:35:13;29.70;;;18.05;;
46334;SDS011;32051;48.882;9.210;2022-12-10T06:37:39;26.90;;;17.20;;
46334;SDS011;32051;48.882;9.210;2022-12-10T06:40:05;27.05;;;17.35;;
46334;SDS011;32051;48.882;9.210;2022-12-10T06:42:31;31.75;;;18.55;;
46334;SDS011;32051;48.882;9.210;2022-12-10T06:44:57;25.95;;;17.95;;
46334;SDS011;32051;48.882;9.210;2022-12-10T06:47:23;33.72;;;18.65;;
46334;SDS011;32051;48.882;9.210;2022-12-10T06:49:50;29.50;;;17.45;;
46334;SDS011;32051;48.882;9.210;2022-12-10T06:52:17;28.35;;;18.33;;
46334;SDS011;32051;48.882;9.210;2022-12-10T06:54:43;32.10;;;19.75;;
46334;SDS011;32051;48.882;9.210;2022-12-10T06:57:09;27.95;;;17.60;;
46334;SDS011;32051;48.882;9.210;2022-12-10T06:59:35;28.48;;;19.23;;
46334;SDS011;32051;48.882;9.210;2022-12-10T07:02:01;27.38;;;17.55;;
46334;SDS011;32051;48.882;9.210;2022-12-10T07:04:27;27.60;;;17.65;;
46334;SDS011;32051;48.882;9.210;2022-12-10T07:06:53;26.98;;;18.08;;
46334;SDS011;32051;48.882;9.210;2022-12-10T07:09:19;29.00;;;18.42;;
46334;SDS011;32051;48.882;9.210;2022-12-10T07:11:45;35.65;;;19.75;;
46334;SDS011;32051;48.882;9.210;2022-12-10T07:14:13;34.95;;;19.05;;
46334;SDS011;32051;48.882;9.210;2022-12-10T07:16:40;34.17;;;19.95;;
46334;SDS011;32051;48.882;9.210;2022-12-10T07:19:08;33.92;;;19.88;;
46334;SDS011;32051;48.882;9.210;2022-12-10T07:21:34;25.02;;;17.85;;
46334;SDS011;32051;48.882;9.210;2022-12-10T07:24:02;29.55;;;17.70;;
46334;SDS011;32051;48.882;9.210;2022-12-10T07:26:30;27.83;;;18.48;;
46334;SDS011;32051;48.882;9.210;2022-12-10T07:28:57;28.20;;;17.95;;
46334;SDS011;32051;48.882;9.210;2022-12-10T07:31:24;30.98;;;18.02;;
46334;SDS011;32051;48.882;9.210;2022-12-10T07:33:51;35.95;;;19.33;;
46334;SDS011;32051;48.882;9.210;2022-12-10T07:36:17;28.88;;;16.38;;
46334;SDS011;32051;48.882;9.210;2022-12-10T07:38:44;27.75;;;18.35;;
46334;SDS011;32051;48.882;9.210;2022-12-10T07:41:10;28.70;;;18.50;;
46334;SDS011;32051;48.882;9.210;2022-12-10T07:43:37;31.77;;;18.95;;
46334;SDS011;32051;48.882;9.210;2022-12-10T07:46:04;28.52;;;18.02;;
46334;SDS011;32051;48.882;9.210;2022-12-10T07:48:31;29.42;;;18.17;;
46334;SDS011;32051;48.882;9.210;2022-12-10T07:50:57;28.17;;;18.38;;
46334;SDS011;32051;48.882;9.210;2022-12-10T07:53:23;28.58;;;19.23;;
46334;SDS011;32051;48.882;9.210;2022-12-10T07:55:49;33.38;;;18.17;;
46334;SDS011;32051;48.882;9.210;2022-12-10T07:58:15;24.98;;;17.60;;
46334;SDS011;32051;48.882;9.210;2022-12-10T08:00:42;29.00;;;17.90;;
46334;SDS011;32051;48.882;9.210;2022-12-10T08:03:08;25.77;;;17.17;;
46334;SDS011;32051;48.882;9.210;2022-12-10T08:05:34;28.00;;;18.45;;
46334;SDS011;32051;48.882;9.210;2022-12-10T08:08:00;25.70;;;17.67;;
46334;SDS011;32051;48.882;9.210;2022-12-10T08:10:26;28.02;;;18.50;;
46334;SDS011;32051;48.882;9.210;2022-12-10T08:12:52;28.63;;;18.65;;
46334;SDS011;32051;48.882;9.210;2022-12-10T08:15:18;27.48;;;18.30;;
46334;SDS011;32051;48.882;9.210;2022-12-10T08:17:44;31.85;;;19.45;;
46334;SDS011;32051;48.882;9.210;2022-12-10T08:20:10;31.65;;;17.98;;
46334;SDS011;32051;48.882;9.210;2022-12-10T08:22:36;25.63;;;16.70;;
46334;SDS011;32051;48.882;9.210;2022-12-10T08:25:04;25.55;;;17.33;;
46334;SDS011;32051;48.882;9.210;2022-12-10T08:27:30;30.30;;;18.55;;
46334;SDS011;32051;48.882;9.210;2022-12-10T08:29:56;26.25;;;18.00;;
46334;SDS011;32051;48.882;9.210;2022-12-10T08:32:22;24.52;;;18.05;;
46334;SDS011;32051;48.882;9.210;2022-12-10T08:34:48;26.70;;;17.50;;
46334;SDS011;32051;48.882;9.210;2022-12-10T08:37:14;29.52;;;18.05;;
46334;SDS011;32051;48.882;9.210;2022-12-10T08:39:41;24.40;;;17.30;;
46334;SDS011;32051;48.882;9.210;2022-12-10T08:42:07;31.42;;;17.38;;
46334;SDS011;32051;48.882;9.210;2022-12-10T08:44:33;30.70;;;18.23;;
46334;SDS011;32051;48.882;9.210;2022-12-10T08:46:59;33.15;;;18.73;;
46334;SDS011;32051;48.882;9.210;2022-12-10T08:49:25;26.63;;;17.00;;
46334;SDS011;32051;48.882;9.210;2022-12-10T08:51:51;30.05;;;19.13;;
46334;SDS011;32051;48.882;9.210;2022-12-10T08:54:17;30.75;;;18.60;;
46334;SDS011;32051;48.882;9.210;2022-12-10T08:56:43;24.05;;;18.35;;
46334;SDS011;32051;48.882;9.210;2022-12-10T08:59:09;27.33;;;18.10;;
46334;SDS011;32051;48.882;9.210;2022-12-10T09:01:35;30.60;;;17.88;;
46334;SDS011;32051;48.882;9.210;2022-12-10T09:04:01;25.77;;;18.00;;
46334;SDS011;32051;48.882;9.210;2022-12-10T09:06:27;28.08;;;17.25;;
46334;SDS011;32051;48.882;9.210;2022-12-10T09:08:54;24.05;;;16.35;;
46334;SDS011;32051;48.882;9.210;2022-12-10T09:11:21;26.15;;;16.85;;
46334;SDS011;32051;48.882;9.210;2022-12-10T09:13:48;23.75;;;16.60;;
46334;SDS011;32051;48.882;9.210;2022-12-10T09:16:15;30.15;;;18.17;;
46334;SDS011;32051;48.882;9.210;2022-12-10T09:18:41;26.05;;;16.95;;
46334;SDS011;32051;48.882;9.210;2022-12-10T09:21:08;28.70;;;17.20;;
46334;SDS011;32051;48.882;9.210;2022-12-10T09:23:34;22.00;;;16.13;;
46334;SDS011;32051;48.882;9.210;2022-12-10T09:26:01;23.85;;;16.23;;
46334;SDS011;32051;48.882;9.210;2022-12-10T09:28:30;24.48;;;15.95;;
46334;SDS011;32051;48.882;9.210;2022-12-10T09:30:57;27.15;;;17.23;;
46334;SDS011;32051;48.882;9.210;2022-12-10T09:33:23;29.48;;;16.80;;
46334;SDS011;32051;48.882;9.210;2022-12-10T09:35:50;26.80;;;16.88;;
46334;SDS011;32051;48.882;9.210;2022-12-10T09:38:16;24.58;;;15.68;;
46334;SDS011;32051;48.882;9.210;2022-12-10T09:40:47;22.90;;;16.08;;
46334;SDS011;32051;48.882;9.210;2022-12-10T09:51:06;20.98;;;14.90;;
46334;SDS011;32051;48.882;9.210;2022-12-10T09:53:35;21.80;;;15.65;;
46334;SDS011;32051;48.882;9.210;2022-12-10T09:56:01;27.85;;;17.17;;
46334;SDS011;32051;48.882;9.210;2022-12-10T09:58:28;26.17;;;17.17;;
46334;SDS011;32051;48.882;9.210;2022-12-10T10:00:58;23.60;;;15.65;;
46334;SDS011;32051;48.882;9.210;2022-12-10T10:03:25;25.30;;;17.70;;
46334;SDS011;32051;48.882;9.210;2022-12-10T10:05:52;19.52;;;14.85;;
46334;SDS011;32051;48.882;9.210;2022-12-10T10:08:23;28.15;;;15.77;;
46334;SDS011;32051;48.882;9.210;2022-12-10T10:10:50;24.60;;;16.35;;
46334;SDS011;32051;48.882;9.210;2022-12-10T10:13:35;27.60;;;18.17;;
46334;SDS011;32051;48.882;9.210;2022-12-10T10:16:25;23.15;;;15.98;;
46334;SDS011;32051;48.882;9.210;2022-12-10T10:18:52;27.60;;;16.27;;
46334;SDS011;32051;48.882;9.210;2022-12-10T10:21:21;23.65;;;14.82;;
46334;SDS011;32051;48.882;9.210;2022-12-10T10:23:48;25.75;;;15.73;;
46334;SDS011;32051;48.882;9.210;2022-12-10T10:26:14;21.45;;;15.93;;
46334;SDS011;32051;48.882;9.210;2022-12-10T10:28:41;20.13;;;14.95;;
46334;SDS011;32051;48.882;9.210;2022-12-10T10:31:19;23.92;;;16.65;;
46334;SDS011;32051;48.882;9.210;2022-12-10T10:33:50;23.02;;;15.52;;
46334;SDS011;32051;48.882;9.210;2022-12-10T10:36:22;22.60;;;15.15;;
46334;SDS011;32051;48.882;9.210;2022-12-10T10:38:48;24.17;;;15.68;;
46334;SDS011;32051;48.882;9.210;2022-12-10T10:41:14;23.00;;;16.67;;
46334;SDS011;32051;48.882;9.210;2022-12-10T10:43:41;24.00;;;16.30;;
46334;SDS011;32051;48.882;9.210;2022-12-10T10:46:14;17.90;;;14.57;;
46334;SDS011;32051;48.882;9.210;2022-12-10T10:48:40;20.80;;;14.73;;
46334;SDS011;32051;48.882;9.210;2022-12-10T10:53:53;21.42;;;15.13;;
46334;SDS011;32051;48.882;9.210;2022-12-10T11:01:15;23.52;;;14.93;;
46334;SDS011;32051;48.882;9.210;2022-12-10T11:03:48;21.25;;;14.25;;
46334;SDS011;32051;48.882;9.210;2022-12-10T11:06:15;21.95;;;14.98;;
46334;SDS011;32051;48.882;9.210;2022-12-10T11:08:42;22.80;;;15.38;;
46334;SDS011;32051;48.882;9.210;2022-12-10T11:11:22;24.58;;;15.57;;
46334;SDS011;32051;48.882;9.210;2022-12-10T11:13:50;20.45;;;15.40;;
46334;SDS011;32051;48.882;9.210;2022-12-10T11:16:18;17.15;;;14.57;;
46334;SDS011;32051;48.882;9.210;2022-12-10T11:19:00;19.95;;;15.20;;
46334;SDS011;32051;48.882;9.210;2022-12-10T11:21:30;28.50;;;17.08;;
46334;SDS011;32051;48.882;9.210;2022-12-10T11:23:57;21.13;;;15.75;;
46334;SDS011;32051;48.882;9.210;2022-12-10T11:26:30;21.77;;;14.95;;
46334;SDS011;32051;48.882;9.210;2022-12-10T11:31:54;19.25;;;14.55;;
46334;SDS011;32051;48.882;9.210;2022-12-10T11:44:24;20.48;;;14.68;;
46334;SDS011;32051;48.882;9.210;2022-12-10T11:54:47;21.35;;;13.63;;
46334;SDS011;32051;48.882;9.210;2022-12-10T11:57:40;20.17;;;13.98;;
46334;SDS011;32051;48.882;9.210;2022-12-10T12:07:53;19.73;;;13.57;;
46334;SDS011;32051;48.882;9.210;2022-12-10T12:13:09;19.75;;;13.77;;
46334;SDS011;32051;48.882;9.210;2022-12-10T12:15:38;18.25;;;13.50;;
46334;SDS011;32051;48.882;9.210;2022-12-10T12:20:38;20.20;;;14.07;;
46334;SDS011;32051;48.882;9.210;2022-12-10T12:26:19;16.65;;;12.75;;
46334;SDS011;32051;48.882;9.210;2022-12-10T12:33:55;16.60;;;12.15;;
46334;SDS011;32051;48.882;9.210;2022-12-10T12:36:26;18.98;;;14.45;;
46334;SDS011;32051;48.882;9.210;2022-12-10T12:41:34;18.92;;;12.75;;
46334;SDS011;32051;48.882;9.210;2022-12-10T12:46:44;21.27;;;14.65;;
46334;SDS011;32051;48.882;9.210;2022-12-10T12:54:18;20.77;;;15.07;;
46334;SDS011;32051;48.882;9.210;2022-12-10T13:04:27;17.70;;;14.85;;
46334;SDS011;32051;48.882;9.210;2022-12-10T13:07:26;24.27;;;14.07;;
46334;SDS011;32051;48.882;9.210;2022-12-10T13:10:07;23.33;;;14.80;;
46334;SDS011;32051;48.882;9.210;2022-12-10T13:15:19;18.65;;;13.63;;
46334;SDS011;32051;48.882;9.210;2022-12-10T13:18:46;26.70;;;14.15;;
46334;SDS011;32051;48.882;9.210;2022-12-10T13:20:47;16.67;;;13.75;;
46334;SDS011;32051;48.882;9.210;2022-12-10T13:23:32;20.45;;;13.10;;
46334;SDS011;32051;48.882;9.210;2022-12-10T13:26:00;17.60;;;12.45;;
46334;SDS011;32051;48.882;9.210;2022-12-10T13:28:28;16.10;;;12.02;;
46334;SDS011;32051;48.882;9.210;2022-12-10T13:36:25;17.70;;;13.43;;
46334;SDS011;32051;48.882;9.210;2022-12-10T13:41:31;20.80;;;12.95;;
46334;SDS011;32051;48.882;9.210;2022-12-10T13:44:36;19.48;;;12.85;;
46334;SDS011;32051;48.882;9.210;2022-12-10T13:52:14;15.20;;;11.48;;
46334;SDS011;32051;48.882;9.210;2022-12-10T13:54:59;22.73;;;13.60;;
46334;SDS011;32051;48.882;9.210;2022-12-10T13:57:47;17.58;;;11.60;;
46334;SDS011;32051;48.882;9.210;2022-12-10T14:00:20;19.55;;;13.40;;
46334;SDS011;32051;48.882;9.210;2022-12-10T14:07:49;16.23;;;12.20;;
46334;SDS011;32051;48.882;9.210;2022-12-10T14:10:16;20.50;;;12.13;;
46334;SDS011;32051;48.882;9.210;2022-12-10T14:12:43;15.60;;;12.77;;
46334;SDS011;32051;48.882;9.210;2022-12-10T14:15:18;17.65;;;12.18;;
46334;SDS011;32051;48.882;9.210;2022-12-10T14:17:46;17.02;;;13.18;;
46334;SDS011;32051;48.882;9.210;2022-12-10T14:20:17;22.60;;;14.68;;
46334;SDS011;32051;48.882;9.210;2022-12-10T14:22:48;19.13;;;14.20;;
46334;SDS011;32051;48.882;9.210;2022-12-10T14:25:15;26.25;;;15.98;;
46334;SDS011;32051;48.882;9.210;2022-12-10T14:27:43;19.63;;;14.50;;
46334;SDS011;32051;48.882;9.210;2022-12-10T14:32:41;22.85;;;14.63;;
46334;SDS011;32051;48.882;9.210;2022-12-10T14:35:11;23.50;;;14.93;;
46334;SDS011;32051;48.882;9.210;2022-12-10T14:37:39;19.90;;;14.38;;
46334;SDS011;32051;48.882;9.210;2022-12-10T14:40:06;22.48;;;14.63;;
46334;SDS011;32051;48.882;9.210;2022-12-10T14:42:33;20.90;;;15.85;;
46334;SDS011;32051;48.882;9.210;2022-12-10T14:45:02;19.73;;;13.40;;
46334;SDS011;32051;48.882;9.210;2022-12-10T14:47:32;22.15;;;14.23;;
46334;SDS011;32051;48.882;9.210;2022-12-10T14:50:00;21.10;;;14.75;;
46334;SDS011;32051;48.882;9.210;2022-12-10T14:52:34;21.73;;;14.80;;
46334;SDS011;32051;48.882;9.210;2022-12-10T14:55:04;24.60;;;15.07;;
46334;SDS011;32051;48.882;9.210;2022-12-10T14:57:32;17.80;;;13.20;;
46334;SDS011;32051;48.882;9.210;2022-12-10T15:00:03;21.88;;;13.15;;
46334;SDS011;32051;48.882;9.210;2022-12-10T15:02:33;19.98;;;14.32;;
46334;SDS011;32051;48.882;9.210;2022-12-10T15:05:00;16.40;;;12.35;;
46334;SDS011;32051;48.882;9.210;2022-12-10T15:07:30;16.48;;;11.65;;
46334;SDS011;32051;48.882;9.210;2022-12-10T15:09:59;14.75;;;11.20;;
46334;SDS011;32051;48.882;9.210;2022-12-10T15:12:37;14.20;;;10.90;;
46334;SDS011;32051;48.882;9.210;2022-12-10T15:15:50;16.52;;;11.50;;
46334;SDS011;32051;48.882;9.210;2022-12-10T15:17:58;13.63;;;9.07;;
46334;SDS011;32051;48.882;9.210;2022-12-10T15:21:03;14.77;;;10.65;;
46334;SDS011;32051;48.882;9.210;2022-12-10T15:23:23;13.38;;;9.52;;
46334;SDS011;32051;48.882;9.210;2022-12-10T15:25:52;13.30;;;9.38;;
46334;SDS011;32051;48.882;9.210;2022-12-10T15:30:54;13.52;;;10.57;;
46334;SDS011;32051;48.882;9.210;2022-12-10T15:33:24;15.63;;;10.02;;
46334;SDS011;32051;48.882;9.210;2022-12-10T15:35:53;11.27;;;9.63;;
46334;SDS011;32051;48.882;9.210;2022-12-10T15:38:20;17.10;;;10.93;;
46334;SDS011;32051;48.882;9.210;2022-12-10T15:40:46;15.45;;;11.70;;
46334;SDS011;32051;48.882;9.210;2022-12-10T15:43:19;14.05;;;11.40;;
46334;SDS011;32051;48.882;9.210;2022-12-10T15:45:49;17.92;;;11.98;;
46334;SDS011;32051;48.882;9.210;2022-12-10T15:48:15;25.83;;;13.75;;
46334;SDS011;32051;48.882;9.210;2022-12-10T15:50:42;22.63;;;14.30;;
46334;SDS011;32051;48.882;9.210;2022-12-10T15:53:12;24.73;;;15.40;;
46334;SDS011;32051;48.882;9.210;2022-12-10T15:55:39;22.17;;;15.02;;
46334;SDS011;32051;48.882;9.210;2022-12-10T15:58:10;21.40;;;15.48;;
46334;SDS011;32051;48.882;9.210;2022-12-10T16:00:36;24.40;;;15.18;;
46334;SDS011;32051;48.882;9.210;2022-12-10T16:03:05;22.95;;;15.73;;
46334;SDS011;32051;48.882;9.210;2022-12-10T16:05:32;21.33;;;15.18;;
46334;SDS011;32051;48.882;9.210;2022-12-10T16:08:01;19.65;;;13.35;;
46334;SDS011;32051;48.882;9.210;2022-12-10T16:10:32;20.27;;;14.65;;
46334;SDS011;32051;48.882;9.210;2022-12-10T16:12:59;21.33;;;14.57;;
46334;SDS011;32051;48.882;9.210;2022-12-10T16:15:26;23.23;;;14.93;;
46334;SDS011;32051;48.882;9.210;2022-12-10T16:17:53;22.55;;;14.82;;
46334;SDS011;32051;48.882;9.210;2022-12-10T16:20:21;23.75;;;15.00;;
46334;SDS011;32051;48.882;9.210;2022-12-10T16:22:47;22.95;;;14.68;;
46334;SDS011;32051;48.882;9.210;2022-12-10T16:25:14;21.90;;;14.50;;
46334;SDS011;32051;48.882;9.210;2022-12-10T16:27:40;24.13;;;15.38;;
46334;SDS011;32051;48.882;9.210;2022-12-10T16:33:06;20.70;;;13.93;;
46334;SDS011;32051;48.882;9.210;2022-12-10T16:35:32;24.35;;;15.13;;
46334;SDS011;32051;48.882;9.210;2022-12-10T16:37:58;21.65;;;14.85;;
46334;SDS011;32051;48.882;9.210;2022-12-10T16:40:26;23.58;;;15.75;;